createdAt,value
2019-02-21T00:01:28.040Z,2.00
2019-02-21T00:03:57.415Z,1.80
2019-02-21T00:06:26.957Z,1.80
2019-02-21T00:08:56.528Z,1.90
2019-02-21T00:11:25.868Z,1.90
2019-02-21T00:13:55.188Z,1.90
2019-02-21T00:16:24.576Z,1.80
2019-02-21T00:19:47.516Z,1.70
2019-02-21T00:22:16.886Z,1.70
2019-02-21T00:24:46.343Z,1.70
2019-02-21T00:27:15.737Z,1.60
2019-02-21T00:29:45.084Z,1.80
2019-02-21T00:32:14.412Z,1.80
2019-02-21T00:34:43.775Z,1.90
2019-02-21T00:37:13.143Z,1.90
2019-02-21T00:39:42.515Z,1.80
2019-02-21T00:42:12.018Z,1.80
2019-02-21T00:44:41.352Z,1.70
2019-02-21T00:47:10.740Z,1.70
2019-02-21T00:49:40.093Z,1.70
2019-02-21T00:52:09.492Z,1.60
2019-02-21T00:54:39.130Z,1.50
2019-02-21T00:57:08.483Z,1.50
2019-02-21T00:59:37.886Z,1.40
2019-02-21T01:02:07.435Z,1.50
2019-02-21T01:04:36.860Z,1.50
2019-02-21T01:07:06.311Z,1.50
2019-02-21T01:09:35.630Z,1.40
2019-02-21T01:12:05.340Z,1.40
2019-02-21T01:14:34.764Z,1.30
2019-02-21T01:17:04.197Z,1.30
2019-02-21T01:19:33.519Z,1.30
2019-02-21T01:22:03.215Z,1.30
2019-02-21T01:24:32.739Z,1.30
2019-02-21T01:27:02.071Z,1.40
2019-02-21T01:29:31.416Z,1.40
2019-02-21T01:32:00.857Z,1.40
2019-02-21T01:34:30.216Z,1.40
2019-02-21T01:36:59.664Z,1.30
2019-02-21T01:39:29.043Z,1.30
2019-02-21T01:41:58.420Z,1.10
2019-02-21T01:44:27.777Z,1.00
2019-02-21T01:46:57.145Z,0.90
2019-02-21T01:49:26.436Z,0.80
2019-02-21T01:51:56.126Z,0.80
2019-02-21T01:54:25.483Z,0.80
2019-02-21T01:56:54.835Z,0.80
2019-02-21T01:59:24.202Z,0.80
2019-02-21T02:01:53.528Z,0.70
2019-02-21T02:04:23.253Z,0.60
2019-02-21T02:06:52.595Z,0.60
2019-02-21T02:09:22.349Z,0.60
2019-02-21T02:11:51.824Z,0.60
2019-02-21T02:14:21.180Z,0.50
2019-02-21T02:16:50.537Z,0.50
2019-02-21T02:19:19.907Z,0.40
2019-02-21T02:21:49.273Z,0.40
2019-02-21T02:24:18.856Z,0.40
2019-02-21T02:27:06.263Z,0.50
2019-02-21T02:29:35.821Z,0.40
2019-02-21T02:32:05.169Z,0.30
2019-02-21T02:34:34.529Z,0.30
2019-02-21T02:37:03.865Z,0.20
2019-02-21T02:39:33.249Z,0.20
2019-02-21T02:42:02.568Z,0.20
2019-02-21T02:44:32.069Z,0.10
2019-02-21T02:47:01.442Z,0.20
2019-02-21T02:49:30.830Z,0.30
2019-02-21T02:52:00.183Z,0.20
2019-02-21T02:54:29.597Z,0.20
2019-02-21T02:56:59.116Z,0.20
2019-02-21T02:59:40.054Z,0.20
2019-02-21T03:01:59.653Z,0.20
2019-02-21T03:04:29.089Z,0.20
2019-02-21T03:06:58.572Z,0.20
2019-02-21T03:09:28.038Z,0.20
2019-02-21T03:11:57.447Z,0.10
2019-02-21T03:14:26.755Z,0.10
2019-02-21T03:16:56.145Z,0.10
2019-02-21T03:19:25.467Z,0.20
2019-02-21T03:21:54.852Z,0.20
2019-02-21T03:24:24.208Z,0.20
2019-02-21T03:26:53.779Z,0.20
2019-02-21T03:29:23.139Z,0.20
2019-02-21T03:31:55.119Z,0.20
2019-02-21T03:34:23.659Z,0.20
2019-02-21T03:36:53.048Z,0.10
2019-02-21T03:39:22.466Z,0.10
2019-02-21T03:41:52.233Z,0.20
2019-02-21T03:44:21.577Z,0.20
2019-02-21T03:46:53.302Z,0.30
2019-02-21T03:49:22.667Z,0.30
2019-02-21T03:51:52.033Z,0.40
2019-02-21T03:54:21.400Z,0.40
2019-02-21T03:56:50.860Z,0.30
2019-02-21T03:59:20.593Z,0.30
2019-02-21T04:01:49.990Z,0.20
2019-02-21T04:04:19.336Z,0.20
2019-02-21T04:06:48.980Z,0.20
2019-02-21T04:09:18.350Z,0.30
2019-02-21T04:11:47.718Z,0.30
2019-02-21T04:14:17.342Z,0.20
2019-02-21T04:16:46.853Z,0.20
2019-02-21T04:19:16.259Z,0.20
2019-02-21T04:21:45.646Z,0.10
2019-02-21T04:24:15.013Z,0.10
2019-02-21T04:26:44.371Z,0.00
2019-02-21T04:29:13.937Z,0.00
2019-02-21T04:31:43.307Z,0.00
2019-02-21T04:34:12.722Z,-0.10
2019-02-21T04:36:42.153Z,-0.10
2019-02-21T04:39:11.491Z,-0.10
2019-02-21T04:41:41.067Z,-0.20
2019-02-21T04:44:10.458Z,-0.30
2019-02-21T04:46:39.803Z,-0.30
2019-02-21T04:49:09.216Z,-0.30
2019-02-21T04:51:38.635Z,-0.30
2019-02-21T04:54:08.302Z,-0.20
2019-02-21T04:56:38.553Z,-0.20
2019-02-21T04:59:07.909Z,-0.20
2019-02-21T05:01:37.267Z,-0.20
2019-02-21T05:04:06.643Z,-0.30
2019-02-21T05:06:36.304Z,-0.30
2019-02-21T05:09:07.529Z,-0.30
2019-02-21T05:11:37.033Z,-0.30
2019-02-21T05:14:06.427Z,-0.30
2019-02-21T05:16:35.942Z,-0.30
2019-02-21T05:19:05.368Z,-0.30
2019-02-21T05:21:34.754Z,-0.30
2019-02-21T05:24:04.154Z,-0.30
2019-02-21T05:26:41.087Z,-0.20
2019-02-21T05:29:12.002Z,-0.20
2019-02-21T05:31:57.765Z,-0.20
2019-02-21T05:34:55.158Z,-0.10
2019-02-21T05:37:49.233Z,0.00
2019-02-21T05:40:50.153Z,0.10
2019-02-21T05:43:31.182Z,0.10
2019-02-21T05:46:21.192Z,0.30
2019-02-21T05:49:11.471Z,0.20
2019-02-21T05:52:02.380Z,0.20
2019-02-21T05:54:39.528Z,0.20
2019-02-21T05:57:36.752Z,0.10
2019-02-21T06:00:25.344Z,0.10
2019-02-21T06:03:11.241Z,0.00
2019-02-21T06:05:59.552Z,0.10
2019-02-21T06:08:46.388Z,0.20
2019-02-21T06:11:29.730Z,0.20
2019-02-21T06:14:16.626Z,0.20
2019-02-21T06:17:04.934Z,0.20
2019-02-21T06:19:41.237Z,0.30
2019-02-21T06:22:28.144Z,0.20
2019-02-21T06:25:10.861Z,0.20
2019-02-21T06:27:45.192Z,0.10
2019-02-21T06:30:33.497Z,0.00
2019-02-21T06:33:05.346Z,-0.20
2019-02-21T06:35:34.056Z,-0.20
2019-02-21T06:38:03.400Z,-0.20
2019-02-21T06:40:32.740Z,-0.30
2019-02-21T06:43:02.132Z,-0.20
2019-02-21T06:45:31.477Z,-0.20
2019-02-21T06:48:00.856Z,-0.20
2019-02-21T06:50:30.304Z,-0.10
2019-02-21T06:52:59.636Z,0.00
2019-02-21T06:55:28.994Z,0.10
2019-02-21T06:57:58.328Z,0.10
2019-02-21T07:00:27.686Z,0.10
2019-02-21T07:02:56.984Z,0.20
2019-02-21T07:05:26.470Z,0.20
2019-02-21T07:07:55.864Z,0.20
2019-02-21T07:10:25.268Z,0.30
2019-02-21T07:12:54.615Z,0.60
2019-02-21T07:15:24.007Z,0.90
2019-02-21T07:17:53.332Z,1.10
2019-02-21T07:20:22.712Z,0.90
2019-02-21T07:22:52.239Z,0.80
2019-02-21T07:25:35.258Z,1.00
2019-02-21T07:28:11.784Z,1.30
2019-02-21T07:30:35.689Z,1.20
2019-02-21T07:33:05.056Z,1.10
2019-02-21T07:35:34.401Z,1.20
2019-02-21T07:38:03.702Z,1.60
2019-02-21T07:40:33.199Z,2.00
2019-02-21T07:43:03.005Z,2.10
2019-02-21T07:45:32.349Z,2.20
2019-02-21T07:48:02.064Z,2.70
2019-02-21T07:50:32.080Z,3.10
2019-02-21T07:53:02.661Z,3.10
2019-02-21T07:55:32.568Z,3.30
2019-02-21T07:58:03.970Z,3.50
2019-02-21T08:00:32.966Z,4.00
2019-02-21T08:03:02.316Z,4.70
2019-02-21T08:05:31.865Z,5.30
2019-02-21T08:08:01.215Z,5.80
2019-02-21T08:10:33.837Z,5.70
2019-02-21T08:13:02.005Z,5.30
2019-02-21T08:15:31.369Z,5.00
2019-02-21T08:18:00.734Z,4.90
2019-02-21T08:20:34.200Z,4.70
2019-02-21T08:23:03.069Z,4.80
2019-02-21T08:25:32.314Z,5.70
2019-02-21T08:28:01.630Z,6.60
2019-02-21T08:30:32.951Z,7.70
2019-02-21T08:33:14.643Z,8.60
2019-02-21T08:35:44.058Z,9.60
2019-02-21T08:38:13.601Z,10.50
2019-02-21T08:40:42.953Z,11.60
2019-02-21T08:43:12.329Z,12.80
2019-02-21T08:45:41.687Z,14.40
2019-02-21T08:48:13.400Z,15.70
2019-02-21T08:50:45.187Z,15.90
2019-02-21T08:53:14.896Z,16.70
2019-02-21T08:55:44.225Z,18.10
2019-02-21T08:58:13.645Z,17.60
2019-02-21T09:00:43.001Z,15.90
2019-02-21T09:03:12.554Z,16.90
2019-02-21T09:05:41.940Z,18.10
2019-02-21T09:08:11.322Z,18.80
2019-02-21T09:10:40.724Z,18.70
2019-02-21T09:13:10.167Z,19.00
2019-02-21T09:15:39.685Z,18.20
2019-02-21T09:18:09.062Z,17.00
2019-02-21T09:20:38.452Z,18.30
2019-02-21T09:23:07.860Z,19.10
2019-02-21T09:25:37.219Z,20.20
2019-02-21T09:28:06.679Z,20.70
2019-02-21T09:30:36.138Z,21.50
2019-02-21T09:33:14.777Z,21.10
2019-02-21T09:35:36.618Z,20.10
2019-02-21T09:38:06.017Z,18.70
2019-02-21T09:40:35.382Z,19.40
2019-02-21T09:43:04.780Z,20.50
2019-02-21T09:45:34.451Z,21.30
2019-02-21T09:48:03.799Z,21.40
2019-02-21T09:50:33.353Z,21.40
2019-02-21T09:53:03.100Z,20.80
2019-02-21T09:55:32.493Z,20.20
2019-02-21T09:58:01.820Z,20.40
2019-02-21T10:00:31.159Z,19.60
2019-02-21T10:03:00.512Z,18.90
2019-02-21T10:05:30.249Z,18.90
2019-02-21T10:07:59.618Z,18.80
2019-02-21T10:10:28.985Z,20.40
2019-02-21T10:12:58.362Z,21.80
2019-02-21T10:15:28.012Z,22.70
2019-02-21T10:17:57.341Z,20.80
2019-02-21T10:20:26.800Z,21.00
2019-02-21T10:22:56.209Z,20.50
2019-02-21T10:25:26.451Z,20.90
2019-02-21T10:27:58.706Z,22.60
2019-02-21T10:30:27.201Z,23.80
2019-02-21T10:32:56.516Z,24.40
2019-02-21T10:35:25.859Z,24.30
2019-02-21T10:37:55.209Z,25.20
2019-02-21T10:40:24.756Z,23.30
2019-02-21T10:42:54.254Z,24.60
2019-02-21T10:45:23.614Z,25.40
2019-02-21T10:47:52.998Z,25.00
2019-02-21T10:50:22.356Z,24.00
2019-02-21T10:52:51.726Z,23.80
2019-02-21T10:55:21.791Z,24.80
2019-02-21T10:57:51.161Z,25.90
2019-02-21T11:00:22.942Z,25.30
2019-02-21T11:02:52.313Z,24.90
2019-02-21T11:05:21.654Z,24.10
2019-02-21T11:07:51.043Z,24.70
2019-02-21T11:10:23.288Z,23.60
2019-02-21T11:12:52.783Z,22.80
2019-02-21T11:15:23.200Z,22.00
2019-02-21T11:17:52.619Z,21.30
2019-02-21T11:20:21.956Z,21.10
2019-02-21T11:22:52.524Z,20.90
2019-02-21T11:25:21.961Z,19.60
2019-02-21T11:27:51.444Z,19.00
2019-02-21T11:30:21.222Z,18.10
2019-02-21T11:32:50.595Z,19.10
2019-02-21T11:35:19.956Z,19.50
2019-02-21T11:37:49.405Z,19.40
2019-02-21T11:40:19.117Z,18.60
2019-02-21T11:42:48.606Z,17.70
2019-02-21T11:45:18.394Z,16.80
2019-02-21T11:47:47.753Z,16.30
2019-02-21T11:50:17.549Z,15.80
2019-02-21T11:52:47.217Z,15.60
2019-02-21T11:55:18.514Z,14.80
2019-02-21T11:57:47.912Z,14.90
2019-02-21T12:00:20.043Z,14.80
2019-02-21T12:02:49.377Z,14.70
2019-02-21T12:05:30.154Z,14.90
2019-02-21T12:07:50.487Z,14.90
2019-02-21T12:10:19.876Z,15.00
2019-02-21T12:12:49.266Z,14.90
2019-02-21T12:15:18.898Z,14.90
2019-02-21T12:17:48.235Z,14.80
2019-02-21T12:20:17.589Z,14.80
2019-02-21T12:22:46.940Z,14.90
2019-02-21T12:25:16.773Z,15.10
2019-02-21T12:27:46.192Z,15.10
2019-02-21T12:30:17.160Z,15.20
2019-02-21T12:32:46.762Z,15.20
2019-02-21T12:35:16.733Z,15.10
2019-02-21T12:37:46.055Z,15.20
2019-02-21T12:40:17.712Z,15.00
2019-02-21T12:42:47.269Z,15.20
2019-02-21T12:45:18.983Z,15.30
2019-02-21T12:47:52.758Z,15.20
2019-02-21T12:50:19.723Z,15.30
2019-02-21T12:52:49.141Z,15.60
2019-02-21T12:55:27.313Z,15.70
2019-02-21T12:57:49.557Z,16.20
2019-02-21T13:00:19.443Z,16.20
2019-02-21T13:02:48.789Z,16.50
2019-02-21T13:05:18.170Z,17.40
2019-02-21T13:07:47.591Z,17.80
2019-02-21T13:10:18.058Z,18.40
2019-02-21T13:12:47.585Z,19.20
2019-02-21T13:15:17.002Z,20.20
2019-02-21T13:17:46.389Z,19.30
2019-02-21T13:20:16.123Z,18.90
2019-02-21T13:22:45.527Z,17.70
2019-02-21T13:25:14.921Z,17.20
2019-02-21T13:27:44.289Z,17.00
2019-02-21T13:30:15.014Z,16.80
2019-02-21T13:32:44.411Z,16.80
2019-02-21T13:35:13.887Z,16.30
2019-02-21T13:37:43.487Z,16.20
2019-02-21T13:40:13.960Z,16.30
2019-02-21T13:42:43.331Z,16.30
2019-02-21T13:45:17.214Z,16.20
2019-02-21T13:47:45.609Z,16.30
2019-02-21T13:50:15.978Z,16.70
2019-02-21T13:52:45.373Z,16.80
2019-02-21T13:55:14.998Z,16.70
2019-02-21T13:57:44.393Z,16.40
2019-02-21T14:00:15.950Z,16.00
2019-02-21T14:02:45.293Z,16.10
2019-02-21T14:05:14.872Z,15.70
2019-02-21T14:07:44.282Z,15.60
2019-02-21T14:10:13.724Z,15.60
2019-02-21T14:12:43.069Z,15.60
2019-02-21T14:15:15.855Z,15.90
2019-02-21T14:17:46.644Z,16.60
2019-02-21T14:20:16.408Z,16.90
2019-02-21T14:22:45.808Z,17.00
2019-02-21T14:25:15.394Z,16.60
2019-02-21T14:27:44.733Z,16.80
2019-02-21T14:30:16.064Z,17.10
2019-02-21T14:32:45.422Z,16.60
2019-02-21T14:35:15.135Z,16.50
2019-02-21T14:37:44.546Z,16.30
2019-02-21T14:40:14.164Z,16.40
2019-02-21T14:42:43.569Z,16.10
2019-02-21T14:45:15.054Z,15.90
2019-02-21T14:47:44.420Z,15.70
2019-02-21T14:50:13.969Z,15.40
2019-02-21T14:52:43.333Z,15.20
2019-02-21T14:55:13.666Z,15.20
2019-02-21T14:57:43.192Z,15.20
2019-02-21T15:00:18.238Z,15.00
2019-02-21T15:02:47.643Z,14.80
2019-02-21T15:05:54.286Z,14.90
2019-02-21T15:08:24.021Z,15.20
2019-02-21T15:10:53.584Z,16.20
2019-02-21T15:13:25.507Z,16.80
2019-02-21T15:15:56.575Z,16.70
2019-02-21T15:18:26.101Z,16.00
2019-02-21T15:20:55.586Z,15.60
2019-02-21T15:23:43.048Z,15.20
2019-02-21T15:26:12.605Z,15.00
2019-02-21T15:28:42.128Z,14.80
2019-02-21T15:31:11.730Z,14.70
2019-02-21T15:33:41.449Z,14.60
2019-02-21T15:36:11.006Z,14.40
2019-02-21T15:38:40.506Z,14.50
2019-02-21T15:41:10.201Z,14.50
2019-02-21T15:43:39.802Z,14.30
2019-02-21T15:46:09.977Z,14.20
2019-02-21T15:48:39.918Z,14.00
2019-02-21T15:51:09.508Z,13.90
2019-02-21T15:53:39.137Z,13.80
2019-02-21T15:56:08.648Z,13.60
2019-02-21T15:58:38.711Z,13.40
2019-02-21T16:01:08.311Z,13.10
2019-02-21T16:03:38.037Z,13.00
2019-02-21T16:06:07.653Z,12.80
2019-02-21T16:08:37.283Z,12.70
2019-02-21T16:11:06.924Z,12.60
2019-02-21T16:13:37.161Z,12.50
2019-02-21T16:16:24.946Z,12.30
2019-02-21T16:18:54.957Z,12.30
2019-02-21T16:21:24.489Z,12.20
2019-02-21T16:23:57.171Z,12.20
2019-02-21T16:26:45.078Z,12.00
2019-02-21T16:29:14.625Z,12.00
2019-02-21T16:31:44.392Z,12.00
2019-02-21T16:34:13.993Z,12.00
2019-02-21T16:36:43.564Z,11.90
2019-02-21T16:39:13.170Z,11.80
2019-02-21T16:41:44.373Z,11.70
2019-02-21T16:44:14.406Z,11.40
2019-02-21T16:46:44.016Z,11.10
2019-02-21T16:49:13.711Z,10.70
2019-02-21T16:51:43.418Z,10.40
2019-02-21T16:54:13.643Z,10.00
2019-02-21T16:56:43.677Z,9.70
2019-02-21T16:59:16.111Z,9.60
2019-02-21T17:01:45.751Z,9.30
2019-02-21T17:04:15.376Z,9.10
2019-02-21T17:07:20.865Z,8.90
2019-02-21T17:09:50.499Z,8.70
2019-02-21T17:12:31.453Z,8.50
2019-02-21T17:15:05.318Z,8.30
2019-02-21T17:17:34.902Z,8.10
2019-02-21T17:20:05.091Z,8.00
2019-02-21T17:22:34.868Z,7.90
2019-02-21T17:25:04.577Z,7.80
2019-02-21T17:27:52.214Z,7.70
2019-02-21T17:30:22.074Z,7.50
2019-02-21T17:32:51.743Z,7.40
2019-02-21T17:35:21.735Z,7.20
2019-02-21T17:37:51.360Z,7.20
2019-02-21T17:40:21.213Z,7.20
2019-02-21T17:42:50.841Z,7.10
2019-02-21T17:45:20.472Z,7.20
2019-02-21T17:47:50.080Z,7.30
2019-02-21T17:50:20.108Z,7.40
2019-02-21T17:52:50.134Z,7.50
2019-02-21T17:55:19.721Z,7.40
2019-02-21T17:58:07.089Z,7.20
2019-02-21T18:00:38.112Z,7.20
2019-02-21T18:03:08.749Z,7.10
2019-02-21T18:05:56.312Z,7.00
2019-02-21T18:08:25.894Z,6.80
2019-02-21T18:10:56.596Z,6.80
2019-02-21T18:13:26.191Z,6.70
2019-02-21T18:15:56.199Z,6.90
2019-02-21T18:18:25.799Z,6.80
2019-02-21T18:20:55.551Z,6.80
2019-02-21T18:23:25.140Z,7.00
2019-02-21T18:26:17.145Z,7.20
2019-02-21T18:28:47.362Z,7.50
2019-02-21T18:31:18.009Z,7.70
2019-02-21T18:33:47.691Z,7.90
2019-02-21T18:36:17.205Z,8.10
2019-02-21T18:38:47.013Z,8.10
2019-02-21T18:41:16.675Z,8.10
2019-02-21T18:43:46.336Z,8.20
2019-02-21T18:46:16.007Z,8.30
2019-02-21T18:48:45.638Z,8.30
2019-02-21T18:51:15.607Z,8.40
2019-02-21T18:53:45.402Z,8.40
2019-02-21T18:56:15.003Z,8.40
2019-02-21T18:58:45.569Z,8.50
2019-02-21T19:01:15.253Z,8.50
2019-02-21T19:03:44.786Z,8.50
2019-02-21T19:06:32.243Z,8.60
2019-02-21T19:09:02.163Z,8.50
2019-02-21T19:11:31.803Z,8.50
2019-02-21T19:14:01.746Z,8.40
2019-02-21T19:16:31.438Z,8.40
2019-02-21T19:19:01.081Z,8.30
2019-02-21T19:21:30.727Z,8.20
2019-02-21T19:24:00.246Z,8.10
2019-02-21T19:26:29.805Z,8.20
2019-02-21T19:28:59.415Z,8.10
2019-02-21T19:31:29.187Z,8.20
2019-02-21T19:33:58.719Z,8.40
2019-02-21T19:36:28.425Z,8.40
2019-02-21T19:38:58.030Z,8.50
2019-02-21T19:41:27.734Z,8.60
2019-02-21T19:44:08.148Z,8.60
2019-02-21T19:46:28.598Z,8.60
2019-02-21T19:48:58.142Z,8.80
2019-02-21T19:51:27.909Z,8.80
2019-02-21T19:53:57.412Z,8.80
2019-02-21T19:56:27.057Z,8.70
2019-02-21T19:58:56.665Z,8.80
2019-02-21T20:01:26.309Z,8.70
2019-02-21T20:03:55.946Z,8.70
2019-02-21T20:06:25.549Z,8.60
2019-02-21T20:08:55.427Z,8.50
2019-02-21T20:11:25.312Z,8.50
2019-02-21T20:13:54.899Z,8.50
2019-02-21T20:16:24.503Z,8.50
2019-02-21T20:18:54.174Z,8.60
2019-02-21T20:21:23.891Z,8.70
2019-02-21T20:23:53.801Z,8.80
2019-02-21T20:26:23.391Z,8.90
2019-02-21T20:28:55.036Z,8.90
2019-02-21T20:31:24.415Z,8.90
2019-02-21T20:33:54.052Z,8.90
2019-02-21T20:36:23.627Z,8.90
2019-02-21T20:38:53.245Z,8.90
2019-02-21T20:41:22.945Z,9.00
2019-02-21T20:43:52.571Z,9.00
2019-02-21T20:46:22.272Z,9.00
2019-02-21T20:48:51.951Z,9.10
2019-02-21T20:51:21.601Z,9.10
2019-02-21T20:53:51.184Z,9.10
2019-02-21T20:56:20.768Z,9.10
2019-02-21T20:58:50.485Z,9.20
2019-02-21T21:01:20.696Z,9.20
2019-02-21T21:03:50.281Z,9.20
2019-02-21T21:06:19.885Z,9.20
2019-02-21T21:08:49.422Z,9.30
2019-02-21T21:11:18.972Z,9.20
2019-02-21T21:13:48.747Z,9.30
2019-02-21T21:16:18.423Z,9.30
2019-02-21T21:18:48.071Z,9.20
2019-02-21T21:21:17.785Z,9.20
2019-02-21T21:23:47.506Z,9.20
2019-02-21T21:26:17.225Z,9.20
2019-02-21T21:28:47.077Z,9.20
2019-02-21T21:31:16.727Z,9.10
2019-02-21T21:33:46.590Z,9.10
2019-02-21T21:36:16.366Z,9.00
2019-02-21T21:38:53.770Z,8.90
2019-02-21T21:41:17.392Z,8.80
2019-02-21T21:43:47.014Z,8.70
2019-02-21T21:46:16.575Z,8.70
2019-02-21T21:48:46.147Z,8.50
2019-02-21T21:51:15.888Z,8.40
2019-02-21T21:53:45.464Z,8.40
2019-02-21T21:56:14.987Z,8.40
2019-02-21T21:58:44.468Z,8.50
2019-02-21T22:01:14.084Z,8.60
2019-02-21T22:03:43.777Z,8.70
2019-02-21T22:06:13.432Z,8.80
2019-02-21T22:08:43.050Z,8.80
2019-02-21T22:11:12.646Z,8.90
2019-02-21T22:13:42.170Z,9.00
2019-02-21T22:16:11.758Z,9.10
2019-02-21T22:18:41.364Z,9.20
2019-02-21T22:21:10.822Z,9.20
2019-02-21T22:23:40.433Z,9.20
2019-02-21T22:26:09.975Z,9.30
2019-02-21T22:28:39.495Z,9.30
2019-02-21T22:31:09.357Z,9.30
2019-02-21T22:33:38.962Z,9.30
2019-02-21T22:36:08.628Z,9.30
2019-02-21T22:38:38.167Z,9.30
2019-02-21T22:41:07.661Z,9.30
2019-02-21T22:43:37.271Z,9.40
2019-02-21T22:46:06.776Z,9.30
2019-02-21T22:48:46.665Z,9.40
2019-02-21T22:51:07.764Z,9.40
2019-02-21T22:53:37.301Z,9.40
2019-02-21T22:56:06.827Z,9.40
2019-02-21T22:58:44.832Z,9.30
2019-02-21T23:01:23.323Z,9.30
2019-02-21T23:04:15.069Z,9.30
2019-02-21T23:07:15.024Z,9.40
2019-02-21T23:09:44.639Z,9.40
2019-02-21T23:12:14.144Z,9.40
2019-02-21T23:14:43.620Z,9.40
2019-02-21T23:17:13.291Z,9.40
2019-02-21T23:19:43.442Z,9.40
2019-02-21T23:22:12.969Z,9.40
2019-02-21T23:24:42.598Z,9.40
2019-02-21T23:27:12.142Z,9.40
2019-02-21T23:29:59.778Z,9.40
2019-02-21T23:32:29.262Z,9.40
2019-02-21T23:34:59.895Z,9.40
2019-02-21T23:37:29.399Z,9.30
2019-02-21T23:39:58.916Z,9.30
2019-02-21T23:42:28.704Z,9.30
2019-02-21T23:44:58.191Z,9.20
2019-02-21T23:47:27.699Z,9.20
2019-02-21T23:49:57.229Z,9.20
2019-02-21T23:52:26.731Z,9.20
2019-02-21T23:54:57.887Z,9.20
2019-02-21T23:57:27.428Z,9.20
2019-02-21T23:59:56.993Z,9.20
